Time;durP1;ratioP1;P1;durP2;ratioP2;P2;SDS_P1;SDS_P2;PMS_P1;PMS_P2;Temp;Humidity;BMP_temperature;BMP_pressure;BME280_temperature;BME280_humidity;BME280_pressure;Samples;Min_cycle;Max_cycle;Signal;HPM_P1;HPM_P2
2022/08/27 00:02:09;;;;;;;21.38;13.15;;;;;;;;;;5053977;28;20028;-62
2022/08/27 00:04:36;;;;;;;21.38;12.50;;;;;;;;;;5052915;28;20025;-62
2022/08/27 00:07:03;;;;;;;20.55;12.60;;;;;;;;;;5051349;28;20545;-62
2022/08/27 00:09:30;;;;;;;20.85;12.63;;;;;;;;;;5043996;28;20021;-62
2022/08/27 00:11:57;;;;;;;21.92;13.00;;;;;;;;;;5053368;28;20402;-62
2022/08/27 00:14:24;;;;;;;20.13;12.20;;;;;;;;;;5050067;28;20028;-63
2022/08/27 00:16:50;;;;;;;20.60;13.18;;;;;;;;;;5051530;28;20021;-62
2022/08/27 00:19:16;;;;;;;21.35;12.93;;;;;;;;;;5051184;28;20029;-62
2022/08/27 00:21:42;;;;;;;25.25;13.18;;;;;;;;;;5053075;28;20021;-62
2022/08/27 00:24:09;;;;;;;18.50;12.45;;;;;;;;;;5051182;28;20032;-62
2022/08/27 00:26:35;;;;;;;20.23;12.77;;;;;;;;;;5052565;28;20378;-62
2022/08/27 00:29:01;;;;;;;21.52;12.90;;;;;;;;;;5051422;28;20028;-63
2022/08/27 00:31:27;;;;;;;20.83;12.02;;;;;;;;;;5051477;28;20021;-62
2022/08/27 00:33:54;;;;;;;21.70;12.38;;;;;;;;;;5051740;28;20031;-60
2022/08/27 00:36:21;;;;;;;20.33;12.63;;;;;;;;;;5050068;28;20420;-60
2022/08/27 00:38:48;;;;;;;18.42;12.00;;;;;;;;;;5044320;28;20021;-61
2022/08/27 00:41:14;;;;;;;18.02;11.93;;;;;;;;;;5052724;28;20099;-61
2022/08/27 00:43:59;;;;;;;20.85;11.45;;;;;;;;;;5050430;28;20048;-62
2022/08/27 00:46:36;;;;;;;19.58;12.10;;;;;;;;;;5052440;28;20021;-62
2022/08/27 00:49:06;;;;;;;21.60;11.93;;;;;;;;;;5049500;28;20029;-60
2022/08/27 00:51:32;;;;;;;22.35;12.52;;;;;;;;;;5050940;28;20086;-62
2022/08/27 00:53:59;;;;;;;17.98;11.50;;;;;;;;;;5052025;28;20025;-64
2022/08/27 00:56:27;;;;;;;20.10;11.80;;;;;;;;;;5051104;28;20489;-62
2022/08/27 00:58:54;;;;;;;21.10;12.48;;;;;;;;;;5049888;28;20033;-61
2022/08/27 01:01:22;;;;;;;21.55;11.52;;;;;;;;;;5049858;28;20086;-61
2022/08/27 01:03:50;;;;;;;20.92;11.48;;;;;;;;;;5049582;28;20040;-63
2022/08/27 01:06:16;;;;;;;18.00;11.10;;;;;;;;;;5052288;28;20033;-63
2022/08/27 01:08:47;;;;;;;20.13;11.82;;;;;;;;;;5050745;28;20044;-63
2022/08/27 01:11:13;;;;;;;20.88;12.02;;;;;;;;;;5052200;28;20048;-62
2022/08/27 01:13:39;;;;;;;18.92;11.70;;;;;;;;;;5048023;28;20116;-62
2022/08/27 01:16:07;;;;;;;21.08;12.20;;;;;;;;;;5047541;28;20485;-62
2022/08/27 01:18:36;;;;;;;18.23;11.38;;;;;;;;;;5047689;28;20035;-62
2022/08/27 01:21:25;;;;;;;18.75;11.40;;;;;;;;;;5052068;28;20032;-62
2022/08/27 01:24:06;;;;;;;18.63;11.20;;;;;;;;;;5048892;28;20105;-62
2022/08/27 01:26:33;;;;;;;17.35;11.07;;;;;;;;;;5051538;28;20025;-62
2022/08/27 01:28:59;;;;;;;21.33;11.30;;;;;;;;;;5047688;28;20043;-62
2022/08/27 01:31:25;;;;;;;18.08;10.60;;;;;;;;;;5050680;28;20032;-62
2022/08/27 01:33:54;;;;;;;19.02;11.27;;;;;;;;;;5050916;28;20070;-62
2022/08/27 01:36:20;;;;;;;21.00;11.27;;;;;;;;;;5049969;28;20116;-64
2022/08/27 01:38:46;;;;;;;18.48;11.55;;;;;;;;;;5048406;28;20116;-62
2022/08/27 01:41:12;;;;;;;22.50;11.25;;;;;;;;;;5051580;28;20028;-63
2022/08/27 01:43:38;;;;;;;17.65;11.20;;;;;;;;;;5051786;28;20029;-61
2022/08/27 01:46:04;;;;;;;16.58;10.50;;;;;;;;;;5050385;28;20033;-62
2022/08/27 01:48:30;;;;;;;19.10;10.40;;;;;;;;;;5049728;28;20047;-63
2022/08/27 01:50:56;;;;;;;19.88;10.50;;;;;;;;;;5050312;28;20027;-64
2022/08/27 01:53:23;;;;;;;19.10;10.18;;;;;;;;;;5050178;28;20028;-64
2022/08/27 01:55:50;;;;;;;17.80;10.60;;;;;;;;;;5049286;28;20083;-61
2022/08/27 01:58:17;;;;;;;17.88;10.40;;;;;;;;;;5050994;28;20025;-62
2022/08/27 02:00:45;;;;;;;18.65;11.05;;;;;;;;;;5048207;28;20059;-60
2022/08/27 02:03:12;;;;;;;16.27;10.20;;;;;;;;;;5051414;28;20116;-62
2022/08/27 02:05:38;;;;;;;17.63;10.00;;;;;;;;;;5050456;28;20036;-63
2022/08/27 02:08:05;;;;;;;18.25;10.20;;;;;;;;;;5049712;28;20124;-62
2022/08/27 02:10:33;;;;;;;20.30;10.90;;;;;;;;;;5048940;28;20017;-62
2022/08/27 02:12:59;;;;;;;16.63;10.15;;;;;;;;;;5049554;28;20041;-62
2022/08/27 02:15:25;;;;;;;16.83;10.18;;;;;;;;;;5050295;28;20518;-62
2022/08/27 02:17:51;;;;;;;16.35;10.00;;;;;;;;;;5051209;28;20151;-62
2022/08/27 02:20:18;;;;;;;18.55;9.77;;;;;;;;;;5050677;28;20021;-62
2022/08/27 02:22:44;;;;;;;16.92;10.10;;;;;;;;;;5050021;28;20028;-62
2022/08/27 02:25:12;;;;;;;19.05;10.05;;;;;;;;;;5048650;28;20029;-63
2022/08/27 02:27:38;;;;;;;19.15;9.80;;;;;;;;;;5050937;28;20021;-62
2022/08/27 02:30:04;;;;;;;17.10;9.65;;;;;;;;;;5049300;28;20064;-62
2022/08/27 02:32:31;;;;;;;17.80;9.95;;;;;;;;;;5051059;28;20459;-62
2022/08/27 02:34:57;;;;;;;17.42;10.02;;;;;;;;;;5050621;28;20469;-63
2022/08/27 02:37:23;;;;;;;17.42;9.80;;;;;;;;;;5051604;28;20033;-64
2022/08/27 02:39:49;;;;;;;16.13;9.70;;;;;;;;;;5054106;28;20024;-63
2022/08/27 02:42:15;;;;;;;17.50;9.63;;;;;;;;;;5054897;28;20033;-63
2022/08/27 02:44:42;;;;;;;17.20;9.90;;;;;;;;;;5053391;28;20254;-61
2022/08/27 02:47:08;;;;;;;16.77;10.30;;;;;;;;;;5052827;28;20471;-62
2022/08/27 02:49:34;;;;;;;16.20;10.57;;;;;;;;;;5054123;28;20094;-63
2022/08/27 02:52:02;;;;;;;15.98;10.30;;;;;;;;;;5053724;28;20071;-64
2022/08/27 02:54:28;;;;;;;18.17;9.90;;;;;;;;;;5054768;28;20036;-64
2022/08/27 02:56:54;;;;;;;18.15;10.02;;;;;;;;;;5053657;28;20021;-62
2022/08/27 02:59:20;;;;;;;18.55;10.30;;;;;;;;;;5054183;28;20079;-63
2022/08/27 03:01:46;;;;;;;17.42;10.45;;;;;;;;;;5051310;28;20021;-63
2022/08/27 03:04:12;;;;;;;16.75;10.10;;;;;;;;;;5055422;28;20036;-65
2022/08/27 03:06:39;;;;;;;15.50;10.05;;;;;;;;;;5053094;28;20033;-65
2022/08/27 03:09:05;;;;;;;20.52;10.07;;;;;;;;;;5054041;28;20025;-65
2022/08/27 03:11:32;;;;;;;16.02;9.85;;;;;;;;;;5052533;28;20025;-65
2022/08/27 03:13:58;;;;;;;18.13;10.02;;;;;;;;;;5052294;28;20107;-65
2022/08/27 03:16:25;;;;;;;16.13;10.27;;;;;;;;;;5053305;28;20024;-65
2022/08/27 03:18:51;;;;;;;17.38;9.82;;;;;;;;;;5053786;28;20075;-66
2022/08/27 03:21:18;;;;;;;18.30;9.88;;;;;;;;;;5053467;28;20091;-65
2022/08/27 03:23:44;;;;;;;16.73;9.73;;;;;;;;;;5054222;28;20028;-65
2022/08/27 03:26:10;;;;;;;16.92;9.85;;;;;;;;;;5045568;28;20119;-66
2022/08/27 03:28:37;;;;;;;16.40;9.98;;;;;;;;;;5053745;28;20480;-66
2022/08/27 03:31:04;;;;;;;16.35;10.10;;;;;;;;;;5053333;28;20171;-65
2022/08/27 03:33:31;;;;;;;16.35;9.88;;;;;;;;;;5053797;28;20478;-68
2022/08/27 03:35:57;;;;;;;17.50;10.93;;;;;;;;;;5054030;28;20026;-69
2022/08/27 03:38:24;;;;;;;18.02;10.10;;;;;;;;;;5051083;28;20028;-66
2022/08/27 03:40:50;;;;;;;16.60;10.00;;;;;;;;;;5052826;28;20421;-67
2022/08/27 03:43:17;;;;;;;17.98;9.80;;;;;;;;;;5054206;28;20033;-66
2022/08/27 03:45:44;;;;;;;19.38;10.43;;;;;;;;;;5052989;28;20381;-66
2022/08/27 03:48:11;;;;;;;16.55;9.93;;;;;;;;;;5052552;28;20021;-65
2022/08/27 03:50:38;;;;;;;18.35;10.23;;;;;;;;;;5052701;28;20025;-65
2022/08/27 03:53:04;;;;;;;18.25;9.75;;;;;;;;;;5053564;28;20021;-65
2022/08/27 03:55:30;;;;;;;17.05;9.80;;;;;;;;;;5052578;28;20028;-65
2022/08/27 03:57:56;;;;;;;20.25;11.48;;;;;;;;;;5051960;28;20025;-65
2022/08/27 04:00:26;;;;;;;19.65;10.27;;;;;;;;;;5050876;28;20021;-66
2022/08/27 04:02:52;;;;;;;18.17;11.07;;;;;;;;;;5053289;28;20024;-66
2022/08/27 04:05:18;;;;;;;18.52;10.48;;;;;;;;;;5051667;28;20039;-66
2022/08/27 04:07:44;;;;;;;19.05;11.10;;;;;;;;;;5068567;22;20124;-60
2022/08/27 04:10:11;;;;;;;17.85;10.52;;;;;;;;;;5055349;28;20028;-59
2022/08/27 04:12:38;;;;;;;18.20;10.20;;;;;;;;;;5069684;28;20386;-62
2022/08/27 04:15:04;;;;;;;17.50;10.38;;;;;;;;;;5054562;28;20013;-62
2022/08/27 04:17:31;;;;;;;21.10;10.98;;;;;;;;;;5054052;28;20024;-62
2022/08/27 04:19:59;;;;;;;16.73;10.45;;;;;;;;;;5055058;28;20100;-62
2022/08/27 04:22:25;;;;;;;18.77;10.55;;;;;;;;;;5053949;28;20363;-62
2022/08/27 04:24:51;;;;;;;19.73;10.13;;;;;;;;;;5052599;28;20464;-63
2022/08/27 04:27:19;;;;;;;16.55;10.27;;;;;;;;;;5049017;28;20069;-62
2022/08/27 04:29:45;;;;;;;17.88;11.10;;;;;;;;;;5052771;28;20086;-61
2022/08/27 04:32:11;;;;;;;18.90;10.45;;;;;;;;;;5054458;28;20051;-61
2022/08/27 04:34:37;;;;;;;16.83;10.10;;;;;;;;;;5053603;28;20029;-62
2022/08/27 04:37:04;;;;;;;17.65;9.98;;;;;;;;;;5053317;28;20081;-62
2022/08/27 04:39:31;;;;;;;18.42;10.90;;;;;;;;;;5052906;28;20033;-62
2022/08/27 04:41:58;;;;;;;17.38;10.77;;;;;;;;;;5053638;28;20076;-61
2022/08/27 04:44:25;;;;;;;19.67;10.60;;;;;;;;;;5053669;28;20167;-61
2022/08/27 04:46:54;;;;;;;16.95;10.23;;;;;;;;;;5034823;28;20026;-61
2022/08/27 04:49:20;;;;;;;15.88;10.20;;;;;;;;;;5050440;28;20029;-63
2022/08/27 04:51:46;;;;;;;17.80;10.70;;;;;;;;;;5054179;28;20025;-64
2022/08/27 04:54:12;;;;;;;15.40;10.48;;;;;;;;;;5053572;28;20045;-62
2022/08/27 04:56:38;;;;;;;17.33;11.00;;;;;;;;;;5051907;28;20075;-62
2022/08/27 04:59:06;;;;;;;18.20;10.75;;;;;;;;;;5051868;28;20105;-62
2022/08/27 05:01:33;;;;;;;17.90;11.05;;;;;;;;;;5051145;28;20120;-62
2022/08/27 05:03:59;;;;;;;19.52;10.80;;;;;;;;;;5053870;28;20025;-62
2022/08/27 05:06:25;;;;;;;20.40;12.05;;;;;;;;;;5052312;28;20029;-59
2022/08/27 05:08:53;;;;;;;17.50;11.00;;;;;;;;;;5052367;28;20033;-61
2022/08/27 05:11:19;;;;;;;15.70;10.20;;;;;;;;;;5053509;28;20401;-61
2022/08/27 05:13:46;;;;;;;19.13;10.90;;;;;;;;;;5051716;28;20393;-61
2022/08/27 05:16:13;;;;;;;19.63;10.63;;;;;;;;;;5053892;28;20104;-61
2022/08/27 05:18:40;;;;;;;17.00;10.80;;;;;;;;;;5052581;28;20385;-62
2022/08/27 05:21:06;;;;;;;17.23;10.48;;;;;;;;;;5053441;28;20522;-60
2022/08/27 05:23:33;;;;;;;18.02;10.23;;;;;;;;;;5052161;28;20049;-62
2022/08/27 05:25:59;;;;;;;17.23;10.27;;;;;;;;;;5045312;28;20025;-61
2022/08/27 05:28:27;;;;;;;16.25;10.45;;;;;;;;;;5044258;28;20033;-62
2022/08/27 05:30:54;;;;;;;20.40;10.48;;;;;;;;;;5054164;28;20021;-62
2022/08/27 05:33:22;;;;;;;19.80;10.63;;;;;;;;;;5052568;28;20043;-59
2022/08/27 05:35:54;;;;;;;19.35;12.48;;;;;;;;;;5054119;28;20025;-61
2022/08/27 05:38:21;;;;;;;20.40;10.98;;;;;;;;;;5050171;28;20516;-62
2022/08/27 05:40:47;;;;;;;18.88;11.43;;;;;;;;;;5053488;28;20053;-60
2022/08/27 05:43:14;;;;;;;18.42;10.82;;;;;;;;;;5052957;28;20028;-62
2022/08/27 05:45:49;;;;;;;17.23;10.45;;;;;;;;;;5050687;28;20447;-62
2022/08/27 05:48:16;;;;;;;17.70;10.90;;;;;;;;;;5051609;28;20029;-58
2022/08/27 05:50:43;;;;;;;18.95;11.98;;;;;;;;;;5051400;28;20028;-59
2022/08/27 05:53:10;;;;;;;19.50;11.35;;;;;;;;;;5051154;28;20032;-58
2022/08/27 05:55:40;;;;;;;18.67;11.45;;;;;;;;;;5049916;28;20028;-60
2022/08/27 05:58:07;;;;;;;18.42;11.65;;;;;;;;;;5050765;28;20032;-59
2022/08/27 06:03:18;;;;;;;19.52;10.55;;;;;;;;;;5040375;28;20102;-60
2022/08/27 06:05:44;;;;;;;18.73;12.77;;;;;;;;;;5051815;28;20033;-60
2022/08/27 06:08:10;;;;;;;17.83;10.82;;;;;;;;;;5049499;28;20086;-58
2022/08/27 06:10:39;;;;;;;19.02;12.10;;;;;;;;;;5056042;28;20429;-60
2022/08/27 06:13:05;;;;;;;16.77;11.10;;;;;;;;;;5055242;28;20028;-59
2022/08/27 06:15:31;;;;;;;17.10;10.60;;;;;;;;;;5055424;28;20021;-59
2022/08/27 06:17:57;;;;;;;15.32;10.43;;;;;;;;;;5055725;28;20496;-57
2022/08/27 06:20:23;;;;;;;16.80;11.18;;;;;;;;;;5051385;28;20021;-57
2022/08/27 06:22:49;;;;;;;19.33;10.93;;;;;;;;;;5051997;28;20032;-60
2022/08/27 06:25:16;;;;;;;17.00;10.35;;;;;;;;;;5051790;28;21257;-56
2022/08/27 06:27:41;;;;;;;16.33;10.48;;;;;;;;;;5051086;28;20123;-57
2022/08/27 06:30:08;;;;;;;17.77;10.45;;;;;;;;;;5053323;28;20039;-59
2022/08/27 06:32:34;;;;;;;15.95;10.18;;;;;;;;;;5054783;28;20029;-60
2022/08/27 06:35:00;;;;;;;19.90;12.13;;;;;;;;;;5049238;28;20017;-57
2022/08/27 06:37:26;;;;;;;18.27;11.77;;;;;;;;;;5052174;28;20083;-60
2022/08/27 06:39:52;;;;;;;20.45;10.55;;;;;;;;;;5050108;28;20389;-57
2022/08/27 06:42:18;;;;;;;16.85;10.40;;;;;;;;;;5055049;28;20065;-62
2022/08/27 06:44:44;;;;;;;18.88;10.80;;;;;;;;;;5055527;28;20025;-61
2022/08/27 06:47:10;;;;;;;20.05;11.18;;;;;;;;;;5055427;28;20382;-57
2022/08/27 06:49:38;;;;;;;17.75;10.93;;;;;;;;;;5055286;28;20074;-58
2022/08/27 06:52:04;;;;;;;18.17;9.85;;;;;;;;;;5042923;28;20052;-57
2022/08/27 06:54:31;;;;;;;18.15;10.23;;;;;;;;;;5051146;28;20469;-59
2022/08/27 06:56:58;;;;;;;17.83;10.02;;;;;;;;;;5049681;28;20375;-59
2022/08/27 06:59:24;;;;;;;18.50;10.02;;;;;;;;;;5043346;28;20167;-55
2022/08/27 07:01:50;;;;;;;18.02;9.90;;;;;;;;;;5045113;28;20032;-57
2022/08/27 07:04:18;;;;;;;18.75;10.57;;;;;;;;;;5045665;28;20029;-59
2022/08/27 07:06:44;;;;;;;17.60;10.40;;;;;;;;;;5045487;28;20036;-58
2022/08/27 07:09:10;;;;;;;17.38;10.25;;;;;;;;;;5047534;28;21200;-59
2022/08/27 07:11:37;;;;;;;17.88;10.05;;;;;;;;;;5043986;28;20030;-56
2022/08/27 07:14:04;;;;;;;18.25;10.48;;;;;;;;;;5050926;28;20439;-61
2022/08/27 07:16:30;;;;;;;18.35;10.10;;;;;;;;;;5049189;28;20048;-59
2022/08/27 07:18:57;;;;;;;16.17;10.02;;;;;;;;;;5045913;28;20021;-58
2022/08/27 07:21:23;;;;;;;17.50;10.98;;;;;;;;;;5045997;28;20386;-55
2022/08/27 07:23:50;;;;;;;18.63;10.80;;;;;;;;;;5045112;28;20049;-59
2022/08/27 07:26:18;;;;;;;16.80;10.35;;;;;;;;;;5044140;28;20029;-59
2022/08/27 07:28:45;;;;;;;17.13;9.90;;;;;;;;;;5040361;28;20039;-59
2022/08/27 07:31:12;;;;;;;25.55;10.88;;;;;;;;;;5046789;28;20037;-59
2022/08/27 07:33:38;;;;;;;16.02;10.63;;;;;;;;;;5041871;28;20113;-61
2022/08/27 07:36:05;;;;;;;17.52;10.50;;;;;;;;;;5041227;28;20628;-64
2022/08/27 07:38:31;;;;;;;20.83;11.13;;;;;;;;;;5042138;28;20021;-57
2022/08/27 07:40:58;;;;;;;18.90;11.05;;;;;;;;;;5061563;28;20430;-55
2022/08/27 07:46:09;;;;;;;19.20;10.68;;;;;;;;;;5043590;28;20188;-62
2022/08/27 07:48:35;;;;;;;20.15;11.15;;;;;;;;;;5040750;28;20055;-58
2022/08/27 07:51:04;;;;;;;22.25;14.05;;;;;;;;;;5046154;28;20032;-62
2022/08/27 07:53:29;;;;;;;;;;;;;;;;;;5046157;28;20071;-63
2022/08/27 07:55:56;;;;;;;20.00;10.60;;;;;;;;;;5046002;28;19917;-60
2022/08/27 07:58:22;;;;;;;16.73;10.88;;;;;;;;;;5046572;28;20027;-63
2022/08/27 08:00:48;;;;;;;17.85;11.40;;;;;;;;;;5047651;28;20033;-66
2022/08/27 08:03:14;;;;;;;16.33;10.55;;;;;;;;;;5048585;28;20029;-65
2022/08/27 08:05:43;;;;;;;18.17;11.18;;;;;;;;;;5044863;28;20026;-57
2022/08/27 08:08:10;;;;;;;19.10;10.50;;;;;;;;;;5044720;28;20036;-60
2022/08/27 08:10:36;;;;;;;18.30;10.90;;;;;;;;;;5054158;28;20032;-62
2022/08/27 08:13:02;;;;;;;19.70;11.40;;;;;;;;;;5052283;28;20341;-62
2022/08/27 08:15:28;;;;;;;19.15;11.25;;;;;;;;;;5044476;28;20021;-64
2022/08/27 08:17:54;;;;;;;19.92;10.80;;;;;;;;;;5040580;28;20036;-60
2022/08/27 08:20:20;;;;;;;17.92;11.20;;;;;;;;;;5040254;28;20034;-63
2022/08/27 08:22:47;;;;;;;17.88;11.60;;;;;;;;;;5041258;28;20025;-64
2022/08/27 08:25:13;;;;;;;17.00;11.20;;;;;;;;;;5046663;28;20029;-62
2022/08/27 08:27:40;;;;;;;17.85;11.25;;;;;;;;;;5046195;28;20025;-62
2022/08/27 08:30:06;;;;;;;17.35;11.10;;;;;;;;;;5044265;28;20036;-65
2022/08/27 08:32:32;;;;;;;20.58;14.60;;;;;;;;;;5044825;28;20036;-62
2022/08/27 08:34:59;;;;;;;18.23;11.20;;;;;;;;;;5038687;28;20440;-64
2022/08/27 08:37:25;;;;;;;17.80;10.88;;;;;;;;;;5043689;28;20033;-56
2022/08/27 08:39:51;;;;;;;17.00;11.35;;;;;;;;;;5046084;28;20013;-64
2022/08/27 08:42:37;;;;;;;19.02;11.77;;;;;;;;;;5047109;28;20024;-63
2022/08/27 08:45:04;;;;;;;17.35;11.20;;;;;;;;;;5043528;28;20056;-64
2022/08/27 08:47:36;;;;;;;19.67;11.43;;;;;;;;;;5043521;28;20029;-64
2022/08/27 08:50:03;;;;;;;18.50;11.43;;;;;;;;;;5041501;28;20086;-64
2022/08/27 08:52:40;;;;;;;18.27;10.60;;;;;;;;;;5048403;28;20442;-63
2022/08/27 08:55:15;;;;;;;20.55;11.30;;;;;;;;;;5052296;28;20028;-63
2022/08/27 08:57:47;;;;;;;19.52;11.02;;;;;;;;;;5044566;28;20025;-64
2022/08/27 09:00:13;;;;;;;17.20;11.02;;;;;;;;;;5037761;28;20517;-62
2022/08/27 09:02:40;;;;;;;18.50;11.10;;;;;;;;;;5041514;28;20021;-61
2022/08/27 09:05:07;;;;;;;17.80;11.07;;;;;;;;;;5042692;28;20025;-63
2022/08/27 09:07:44;;;;;;;19.88;10.40;;;;;;;;;;5041512;28;20025;-62
2022/08/27 09:10:31;;;;;;;18.08;10.68;;;;;;;;;;5047455;28;20075;-64
2022/08/27 09:12:59;;;;;;;19.33;10.23;;;;;;;;;;5046688;28;20029;-63
2022/08/27 09:15:28;;;;;;;20.63;11.00;;;;;;;;;;5046408;28;20503;-64
2022/08/27 09:18:04;;;;;;;18.27;11.10;;;;;;;;;;5051745;28;20087;-68
2022/08/27 09:20:30;;;;;;;16.85;10.35;;;;;;;;;;5050459;28;20056;-64
2022/08/27 09:23:03;;;;;;;18.27;11.05;;;;;;;;;;5050338;28;20025;-63
2022/08/27 09:25:33;;;;;;;19.05;10.75;;;;;;;;;;5049428;28;20033;-64
2022/08/27 09:28:01;;;;;;;16.63;10.00;;;;;;;;;;5051283;28;20071;-64
2022/08/27 09:30:29;;;;;;;16.92;9.70;;;;;;;;;;5051654;28;20045;-64
2022/08/27 09:32:59;;;;;;;19.05;10.52;;;;;;;;;;5051625;28;20098;-62
2022/08/27 09:35:27;;;;;;;16.60;10.10;;;;;;;;;;5041628;28;20083;-61
2022/08/27 09:37:54;;;;;;;18.93;10.90;;;;;;;;;;5051235;28;20082;-62
2022/08/27 09:40:41;;;;;;;19.42;10.43;;;;;;;;;;5046127;28;20214;-63
2022/08/27 09:43:08;;;;;;;17.73;10.05;;;;;;;;;;5046349;28;20029;-63
2022/08/27 09:45:34;;;;;;;17.33;11.10;;;;;;;;;;5049880;28;20067;-63
2022/08/27 09:48:09;;;;;;;19.45;11.20;;;;;;;;;;5051148;28;20036;-62
2022/08/27 09:51:01;;;;;;;19.15;11.82;;;;;;;;;;5048861;28;20124;-62
2022/08/27 09:53:33;;;;;;;16.70;10.45;;;;;;;;;;5047238;28;20059;-64
2022/08/27 09:56:20;;;;;;;16.77;9.90;;;;;;;;;;5049885;28;20068;-64
2022/08/27 09:58:52;;;;;;;18.02;10.70;;;;;;;;;;5051031;28;20125;-65
2022/08/27 10:01:27;;;;;;;17.13;10.77;;;;;;;;;;5042537;28;20029;-63
2022/08/27 10:04:14;;;;;;;16.25;9.90;;;;;;;;;;5048377;28;20060;-64
2022/08/27 10:06:50;;;;;;;18.98;10.88;;;;;;;;;;5051143;28;20388;-63
2022/08/27 10:09:29;;;;;;;16.48;10.43;;;;;;;;;;5073917;23;20051;-65
2022/08/27 10:11:58;;;;;;;17.05;10.40;;;;;;;;;;5043390;28;20147;-65
2022/08/27 10:14:51;;;;;;;17.20;11.00;;;;;;;;;;5043586;28;20033;-65
2022/08/27 10:17:17;;;;;;;16.27;10.20;;;;;;;;;;5042130;28;20072;-65
2022/08/27 10:20:02;;;;;;;16.17;11.23;;;;;;;;;;5050946;28;20025;-65
2022/08/27 10:22:47;;;;;;;17.25;10.57;;;;;;;;;;5045283;28;20179;-65
2022/08/27 10:25:22;;;;;;;17.27;10.48;;;;;;;;;;5049957;28;20029;-65
2022/08/27 10:28:06;;;;;;;17.58;10.57;;;;;;;;;;5050754;28;20029;-65
2022/08/27 10:30:39;;;;;;;18.77;11.15;;;;;;;;;;5051155;28;20438;-65
2022/08/27 10:33:13;;;;;;;16.88;10.25;;;;;;;;;;5049243;28;20041;-64
2022/08/27 10:35:45;;;;;;;17.63;11.00;;;;;;;;;;5043457;28;20031;-65
2022/08/27 10:38:14;;;;;;;17.30;10.38;;;;;;;;;;5050675;28;20056;-65
2022/08/27 10:40:43;;;;;;;17.13;10.68;;;;;;;;;;5050788;28;20021;-65
2022/08/27 10:43:12;;;;;;;17.83;11.18;;;;;;;;;;5041351;28;20025;-65
2022/08/27 10:45:41;;;;;;;16.20;10.77;;;;;;;;;;5050075;28;20025;-65
2022/08/27 10:48:23;;;;;;;16.65;11.00;;;;;;;;;;5050390;28;20112;-64
2022/08/27 10:50:53;;;;;;;18.73;10.82;;;;;;;;;;5050156;28;20025;-64
2022/08/27 10:53:30;;;;;;;18.30;11.27;;;;;;;;;;5050291;28;20045;-63
2022/08/27 10:56:08;;;;;;;19.10;10.93;;;;;;;;;;5052640;28;20100;-64
2022/08/27 10:58:53;;;;;;;17.25;11.05;;;;;;;;;;5054133;28;20105;-64
2022/08/27 11:01:25;;;;;;;16.63;10.65;;;;;;;;;;5044749;28;20091;-64
2022/08/27 11:03:55;;;;;;;15.95;10.90;;;;;;;;;;5054249;28;20493;-64
2022/08/27 11:06:42;;;;;;;17.42;11.50;;;;;;;;;;5054269;28;20025;-64
2022/08/27 11:09:14;;;;;;;17.30;10.83;;;;;;;;;;5052274;28;20112;-64
2022/08/27 11:11:46;;;;;;;16.73;10.85;;;;;;;;;;5052758;28;20283;-64
2022/08/27 11:14:19;;;;;;;15.77;10.05;;;;;;;;;;5033826;28;20370;-64
2022/08/27 11:16:50;;;;;;;15.38;10.02;;;;;;;;;;5032676;28;20026;-64
2022/08/27 11:19:19;;;;;;;16.77;10.63;;;;;;;;;;5034110;28;20438;-65
2022/08/27 11:21:44;;;;;;;;;;;;;;;;;;5052766;28;20021;-64
2022/08/27 11:24:11;;;;;;;17.10;10.32;;;;;;;;;;5054026;28;19970;-64
2022/08/27 11:26:38;;;;;;;17.27;10.75;;;;;;;;;;5052826;28;20412;-64
2022/08/27 11:29:28;;;;;;;17.75;9.80;;;;;;;;;;5053626;28;20087;-64
2022/08/27 11:31:57;;;;;;;15.75;9.40;;;;;;;;;;5041441;28;20115;-64
2022/08/27 11:34:32;;;;;;;18.75;10.73;;;;;;;;;;5052382;28;20025;-64
2022/08/27 11:37:10;;;;;;;17.58;10.07;;;;;;;;;;5053736;28;20196;-64
2022/08/27 11:39:47;;;;;;;15.77;10.15;;;;;;;;;;5052641;28;20029;-64
2022/08/27 11:42:16;;;;;;;17.60;10.35;;;;;;;;;;5052467;28;20117;-64
2022/08/27 11:44:43;;;;;;;17.08;10.50;;;;;;;;;;5052334;28;20017;-64
2022/08/27 11:47:14;;;;;;;17.25;9.63;;;;;;;;;;5053057;28;20465;-65
2022/08/27 11:49:59;;;;;;;17.23;9.93;;;;;;;;;;5050303;28;20036;-65
2022/08/27 11:52:28;;;;;;;15.55;9.90;;;;;;;;;;5049290;28;20507;-65
2022/08/27 11:54:54;;;;;;;;;;;;;;;;;;5051317;28;20036;-65
2022/08/27 11:57:28;;;;;;;18.08;10.52;;;;;;;;;;5052146;28;19905;-65
2022/08/27 11:59:54;;;;;;;17.13;10.65;;;;;;;;;;5050421;28;20053;-64
2022/08/27 12:02:25;;;;;;;18.02;10.00;;;;;;;;;;5053160;28;20075;-65
2022/08/27 12:04:54;;;;;;;16.83;9.95;;;;;;;;;;5052558;28;20025;-65
2022/08/27 12:07:26;;;;;;;;;;;;;;;;;;5051319;28;20033;-65
2022/08/27 12:10:11;;;;;;;19.10;11.15;;;;;;;;;;5050342;28;19912;-64
2022/08/27 12:12:56;;;;;;;16.55;10.68;;;;;;;;;;5050013;28;20182;-65
2022/08/27 12:15:25;;;;;;;22.90;10.13;;;;;;;;;;5046671;28;20021;-64
2022/08/27 12:17:58;;;;;;;17.08;10.15;;;;;;;;;;5050825;28;20029;-64
2022/08/27 12:20:27;;;;;;;16.75;11.00;;;;;;;;;;5049677;28;20040;-65
2022/08/27 12:25:38;;;;;;;16.33;11.00;;;;;;;;;;5050886;28;20040;-65
2022/08/27 12:28:05;;;;;;;17.15;11.27;;;;;;;;;;5051895;28;20044;-65
2022/08/27 12:30:33;;;;;;;18.80;12.73;;;;;;;;;;5050339;28;20389;-65
2022/08/27 12:33:04;;;;;;;18.40;11.43;;;;;;;;;;5052321;28;20071;-65
2022/08/27 12:35:47;;;;;;;20.65;11.85;;;;;;;;;;5031514;28;20517;-65
2022/08/27 12:38:21;;;;;;;18.15;11.55;;;;;;;;;;5031038;28;20030;-65
2022/08/27 12:40:50;;;;;;;18.88;12.63;;;;;;;;;;5045871;28;20432;-66
2022/08/27 12:43:19;;;;;;;17.17;11.23;;;;;;;;;;5050767;28;20021;-66
2022/08/27 12:45:46;;;;;;;16.73;11.50;;;;;;;;;;5052469;28;20029;-66
2022/08/27 12:48:13;;;;;;;15.73;11.23;;;;;;;;;;5050370;28;20041;-66
2022/08/27 12:50:39;;;;;;;16.80;11.10;;;;;;;;;;5046876;28;20047;-65
2022/08/27 12:53:34;;;;;;;16.17;11.02;;;;;;;;;;5052340;28;20021;-66
2022/08/27 12:56:07;;;;;;;19.23;10.95;;;;;;;;;;5043748;28;20041;-66
2022/08/27 12:58:41;;;;;;;16.48;10.50;;;;;;;;;;5051453;28;20047;-66
2022/08/27 13:01:27;;;;;;;18.25;10.85;;;;;;;;;;5049498;28;20067;-65
2022/08/27 13:03:54;;;;;;;20.85;10.48;;;;;;;;;;5050773;28;20036;-65
2022/08/27 13:06:23;;;;;;;18.75;11.50;;;;;;;;;;5049698;28;20032;-65
2022/08/27 13:08:53;;;;;;;18.00;11.00;;;;;;;;;;5049705;28;20033;-65
2022/08/27 13:11:20;;;;;;;17.40;11.77;;;;;;;;;;5051340;28;20115;-65
2022/08/27 13:13:47;;;;;;;18.30;11.15;;;;;;;;;;5050296;28;20031;-66
2022/08/27 13:16:13;;;;;;;16.08;11.18;;;;;;;;;;5052371;28;20037;-66
2022/08/27 13:18:39;;;;;;;16.77;11.40;;;;;;;;;;5051283;28;20398;-65
2022/08/27 13:21:13;;;;;;;17.27;12.20;;;;;;;;;;5050788;28;20032;-67
2022/08/27 13:23:44;;;;;;;17.83;11.48;;;;;;;;;;5041304;28;20048;-66
2022/08/27 13:26:11;;;;;;;18.77;11.23;;;;;;;;;;5051740;28;20036;-66
2022/08/27 13:28:39;;;;;;;16.55;10.93;;;;;;;;;;5051606;28;20025;-66
2022/08/27 13:31:06;;;;;;;18.13;11.15;;;;;;;;;;5051569;28;20473;-66
2022/08/27 13:33:34;;;;;;;17.17;11.02;;;;;;;;;;5042282;28;20116;-66
2022/08/27 13:36:01;;;;;;;17.07;11.00;;;;;;;;;;5051446;28;20027;-66
2022/08/27 13:38:30;;;;;;;17.73;11.02;;;;;;;;;;5051030;28;20787;-66
2022/08/27 13:40:55;;;;;;;;;;;;;;;;;;5051156;28;20087;-66
2022/08/27 13:43:26;;;;;;;17.17;11.32;;;;;;;;;;5050570;28;19913;-66
2022/08/27 13:45:53;;;;;;;16.70;11.30;;;;;;;;;;5051430;28;20025;-67
2022/08/27 13:48:20;;;;;;;19.05;11.20;;;;;;;;;;5049852;28;20374;-66
2022/08/27 13:50:51;;;;;;;16.90;11.20;;;;;;;;;;5050359;28;20017;-67
2022/08/27 13:56:06;;;;;;;18.95;10.98;;;;;;;;;;5051374;28;20036;-66
2022/08/27 13:58:33;;;;;;;17.98;11.32;;;;;;;;;;5051001;28;20025;-67
2022/08/27 14:01:10;;;;;;;20.42;13.38;;;;;;;;;;5051234;28;20029;-67
2022/08/27 14:03:45;;;;;;;19.67;11.00;;;;;;;;;;5041202;28;20434;-67
2022/08/27 14:06:21;;;;;;;18.67;10.80;;;;;;;;;;5050975;28;20037;-66
2022/08/27 14:08:47;;;;;;;19.30;11.25;;;;;;;;;;5050972;28;20401;-65
2022/08/27 14:11:14;;;;;;;18.02;11.50;;;;;;;;;;5049698;28;20447;-67
2022/08/27 14:13:42;;;;;;;18.80;10.93;;;;;;;;;;5049836;28;20056;-65
2022/08/27 14:16:27;;;;;;;16.07;10.93;;;;;;;;;;5031380;28;20032;-67
2022/08/27 14:19:13;;;;;;;17.75;10.80;;;;;;;;;;5031047;28;20314;-67
2022/08/27 14:21:42;;;;;;;16.73;11.68;;;;;;;;;;5031744;28;20025;-67
2022/08/27 14:24:08;;;;;;;17.55;11.20;;;;;;;;;;5051255;28;20100;-67
2022/08/27 14:26:34;;;;;;;19.20;11.52;;;;;;;;;;5051491;28;20029;-67
2022/08/27 14:29:00;;;;;;;17.20;11.13;;;;;;;;;;5051266;28;20029;-67
2022/08/27 14:31:27;;;;;;;19.58;11.10;;;;;;;;;;5055089;28;20493;-67
2022/08/27 14:33:53;;;;;;;21.17;11.80;;;;;;;;;;5061516;28;20067;-67
2022/08/27 14:36:20;;;;;;;19.35;12.13;;;;;;;;;;5054820;28;20195;-67
2022/08/27 14:38:47;;;;;;;17.52;12.55;;;;;;;;;;5054845;28;20366;-67
2022/08/27 14:41:13;;;;;;;18.63;12.88;;;;;;;;;;5053853;28;20370;-66
2022/08/27 14:43:39;;;;;;;22.20;13.65;;;;;;;;;;5044652;28;20146;-65